Time;durP1;ratioP1;P1;durP2;ratioP2;P2;SDS_P1;SDS_P2;PMS_P1;PMS_P2;Temp;Humidity;BMP_temperature;BMP_pressure;BME280_temperature;BME280_humidity;BME280_pressure;Samples;Min_cycle;Max_cycle;Signal;HPM_P1;HPM_P2
2022/09/23 00:00:48;;;;;;;1.30;0.50;;;;;;;14.73;56.12;99147.00;6155362;23;20175;-89
2022/09/23 00:03:15;;;;;;;0.83;0.50;;;;;;;14.81;56.42;99138.56;6130224;23;20541;-89
2022/09/23 00:05:42;;;;;;;0.63;0.43;;;;;;;15.00;55.53;99145.09;6156520;23;20162;-89
2022/09/23 00:08:11;;;;;;;0.90;0.50;;;;;;;15.02;54.93;99135.28;6156129;23;20302;-89
2022/09/23 00:10:38;;;;;;;1.53;0.40;;;;;;;15.06;54.81;99136.75;6156077;23;20181;-89
2022/09/23 00:13:05;;;;;;;0.43;0.33;;;;;;;15.13;54.70;99130.09;6156558;23;20178;-89
2022/09/23 00:15:38;;;;;;;1.17;0.50;;;;;;;15.13;54.74;99132.72;6130322;23;20575;-89
2022/09/23 00:18:04;;;;;;;1.17;0.50;;;;;;;15.14;55.47;99129.16;6130821;23;20173;-89
2022/09/23 00:20:32;;;;;;;1.33;0.50;;;;;;;15.15;55.74;99128.16;6155397;23;20175;-89
2022/09/23 00:23:00;;;;;;;0.93;0.40;;;;;;;15.15;55.54;99125.53;6155450;23;20147;-89
2022/09/23 00:25:28;;;;;;;1.83;0.70;;;;;;;15.15;55.44;99120.25;6156087;23;20218;-89
2022/09/23 00:27:54;;;;;;;0.67;0.40;;;;;;;15.11;55.77;99126.72;6130373;23;20163;-89
2022/09/23 00:30:22;;;;;;;0.90;0.50;;;;;;;15.17;55.71;99126.25;6155552;23;20143;-89
2022/09/23 00:32:49;;;;;;;0.70;0.40;;;;;;;15.20;55.61;99122.56;6156000;23;20151;-89
2022/09/23 00:35:16;;;;;;;6.17;0.80;;;;;;;15.20;55.94;99125.19;6156105;23;20210;-90
2022/09/23 00:37:43;;;;;;;0.60;0.40;;;;;;;15.19;56.21;99127.00;6155166;23;20209;-89
2022/09/23 00:40:11;;;;;;;1.10;0.47;;;;;;;15.13;56.85;99130.09;6155755;23;20174;-89
2022/09/23 00:42:46;;;;;;;0.50;0.30;;;;;;;15.12;56.20;99133.66;6156002;23;20159;-89
2022/09/23 00:45:12;;;;;;;0.93;0.60;;;;;;;15.14;56.20;99129.16;6156083;23;20301;-90
2022/09/23 00:48:13;;;;;;;1.30;0.50;;;;;;;15.08;54.36;99136.63;6130023;23;20186;-89
2022/09/23 00:50:44;;;;;;;1.17;0.50;;;;;;;15.09;53.88;99126.00;6113511;23;20204;-89
2022/09/23 00:53:15;;;;;;;0.70;0.43;;;;;;;15.16;53.08;99129.03;6154937;23;20231;-89
2022/09/23 00:55:44;;;;;;;1.30;0.60;;;;;;;15.18;53.11;99129.75;6154685;23;20143;-89
2022/09/23 00:58:14;;;;;;;1.47;0.73;;;;;;;15.24;52.81;99130.16;6156106;23;20567;-89
2022/09/23 01:00:41;;;;;;;2.67;1.03;;;;;;;15.38;52.65;99137.09;6128568;23;20199;-89
2022/09/23 01:03:08;;;;;;;1.43;1.03;;;;;;;15.50;52.12;99138.03;6154218;23;20161;-89
2022/09/23 01:05:35;;;;;;;3.50;1.47;;;;;;;15.50;52.24;99124.81;6153978;23;20165;-89
2022/09/23 01:08:03;;;;;;;2.73;0.70;;;;;;;15.47;52.90;99128.53;6153484;23;20166;-89
2022/09/23 01:10:47;;;;;;;1.73;0.70;;;;;;;15.40;53.49;99124.63;6155740;23;20147;-89
2022/09/23 01:13:31;;;;;;;1.30;0.67;;;;;;;15.37;53.34;99127.47;6130065;23;20216;-89
2022/09/23 01:16:34;;;;;;;1.67;0.80;;;;;;;15.36;53.37;99124.00;6129483;23;20143;-89
2022/09/23 01:19:46;;;;;;;1.07;0.60;;;;;;;15.28;53.28;99118.41;6156001;23;20268;-90
2022/09/23 01:22:45;;;;;;;2.13;0.83;;;;;;;15.20;53.50;99119.91;6154240;23;20182;-89
2022/09/23 01:25:22;;;;;;;2.63;0.70;;;;;;;15.08;53.97;99115.53;6154557;23;20136;-89
2022/09/23 01:27:51;;;;;;;1.67;0.70;;;;;;;15.09;54.06;99114.56;6154073;23;20208;-89
2022/09/23 01:30:34;;;;;;;1.73;0.80;;;;;;;15.07;53.90;99121.75;6128044;23;20154;-89
2022/09/23 01:33:29;;;;;;;1.30;0.67;;;;;;;15.00;54.58;99118.72;6153628;23;20185;-89
2022/09/23 01:36:03;;;;;;;1.40;0.80;;;;;;;14.90;55.19;99122.94;6154082;23;20143;-89
2022/09/23 01:38:59;;;;;;;2.30;1.00;;;;;;;14.80;55.31;99119.28;6154040;23;20212;-89
2022/09/23 01:41:46;;;;;;;1.43;0.77;;;;;;;14.67;55.90;99119.25;6129840;23;20179;-89
2022/09/23 01:44:32;;;;;;;1.90;0.90;;;;;;;14.60;56.27;99117.16;6156188;23;20147;-89
2022/09/23 01:47:09;;;;;;;1.83;0.83;;;;;;;14.48;56.84;99118.88;6129759;23;20157;-89
2022/09/23 01:49:57;;;;;;;3.73;1.00;;;;;;;14.37;57.38;99128.44;6129788;23;20150;-89
2022/09/23 01:52:42;;;;;;;3.70;0.80;;;;;;;14.36;57.58;99118.88;6156141;23;20160;-89
2022/09/23 01:55:30;;;;;;;2.97;1.17;;;;;;;14.36;57.60;99118.88;6129739;23;20154;-89
2022/09/23 01:58:16;;;;;;;2.07;1.13;;;;;;;14.28;57.72;99118.50;6128595;23;20162;-89
2022/09/23 02:00:51;;;;;;;1.70;0.97;;;;;;;14.20;58.15;99128.72;6155400;23;20247;-89
2022/09/23 02:03:20;;;;;;;2.20;0.97;;;;;;;14.03;59.00;99130.69;6129747;23;20521;-89
2022/09/23 02:06:01;;;;;;;2.57;1.20;;;;;;;13.95;59.65;99130.34;6155771;23;20557;-89
2022/09/23 02:09:01;;;;;;;2.00;1.20;;;;;;;13.94;59.82;99133.94;6155409;23;20284;-89
2022/09/23 02:11:28;;;;;;;2.20;0.83;;;;;;;13.89;59.49;99138.66;6096364;23;20175;-89
2022/09/23 02:14:31;;;;;;;2.20;1.30;;;;;;;13.91;59.49;99142.06;6155226;23;20160;-89
2022/09/23 02:17:07;;;;;;;4.37;1.37;;;;;;;13.83;59.98;99141.72;6136736;23;20158;-89
2022/09/23 02:20:02;;;;;;;5.03;1.70;;;;;;;13.86;59.58;99140.66;6155556;23;20138;-89
2022/09/23 02:22:38;;;;;;;3.80;1.63;;;;;;;13.89;59.58;99143.91;6153262;23;20174;-89
2022/09/23 02:25:05;;;;;;;2.57;1.33;;;;;;;13.90;59.47;99145.63;6157425;23;20555;-89
2022/09/23 02:27:55;;;;;;;8.93;1.93;;;;;;;13.91;59.11;99139.44;6157095;23;20211;-89
2022/09/23 02:30:28;;;;;;;1.73;0.80;;;;;;;13.99;59.25;99141.56;6157268;23;20138;-89
2022/09/23 02:33:10;;;;;;;3.77;1.57;;;;;;;14.07;59.33;99147.16;6157591;23;20146;-89
2022/09/23 02:36:01;;;;;;;3.50;1.13;;;;;;;14.13;59.06;99136.19;6132857;23;20136;-89
2022/09/23 02:38:32;;;;;;;3.23;1.50;;;;;;;14.10;59.50;99136.38;6157480;23;20139;-89
2022/09/23 02:41:13;;;;;;;3.00;1.90;;;;;;;14.09;59.66;99137.34;6157561;23;20476;-89
2022/09/23 02:43:52;;;;;;;2.67;1.37;;;;;;;14.12;59.14;99135.34;6157216;23;20196;-89
2022/09/23 02:46:20;;;;;;;1.93;1.37;;;;;;;14.11;58.99;99138.94;6157211;23;20142;-89
2022/09/23 02:49:01;;;;;;;2.20;1.20;;;;;;;14.09;59.24;99130.28;6156635;23;20156;-88
2022/09/23 02:51:33;;;;;;;2.33;1.10;;;;;;;14.08;59.87;99133.88;6157816;23;20221;-89
2022/09/23 02:54:01;;;;;;;2.20;1.43;;;;;;;14.10;60.43;99133.75;6131210;23;20238;-89
2022/09/23 02:56:28;;;;;;;3.90;1.40;;;;;;;14.15;60.39;99132.50;6156998;23;20496;-89
2022/09/23 02:58:55;;;;;;;3.73;1.70;;;;;;;14.11;61.20;99131.03;6157298;23;20158;-89
2022/09/23 03:01:55;;;;;;;2.90;1.20;;;;;;;14.17;61.11;99135.03;6156425;23;20182;-89
2022/09/23 03:05:00;;;;;;;2.97;1.43;;;;;;;14.12;61.18;99124.78;6156923;23;20154;-89
2022/09/23 03:07:48;;;;;;;4.37;1.33;;;;;;;14.16;61.04;99125.44;6129800;23;20559;-89
2022/09/23 03:10:18;;;;;;;3.07;1.70;;;;;;;14.21;60.89;99123.34;6157311;23;20153;-89
2022/09/23 03:13:15;;;;;;;3.30;1.27;;;;;;;14.26;60.51;99129.13;6131082;23;20164;-88
2022/09/23 03:16:11;;;;;;;3.20;1.40;;;;;;;14.23;60.83;99131.97;6157426;23;20132;-89
2022/09/23 03:18:56;;;;;;;3.97;1.13;;;;;;;14.14;60.91;99132.59;6157086;23;20532;-88
2022/09/23 03:21:27;;;;;;;3.37;1.73;;;;;;;14.15;60.97;99145.69;6156027;23;20171;-89
2022/09/23 03:23:58;;;;;;;1.70;0.90;;;;;;;14.14;60.89;99149.28;6156527;23;20222;-89
2022/09/23 03:26:32;;;;;;;1.23;0.73;;;;;;;14.11;61.30;99146.00;6157085;23;20143;-89
2022/09/23 03:29:04;;;;;;;7.30;1.20;;;;;;;14.13;61.06;99139.66;6130970;23;20593;-89
2022/09/23 03:31:33;;;;;;;2.97;1.23;;;;;;;14.14;61.17;99138.72;6156758;23;20135;-89
2022/09/23 03:34:04;;;;;;;4.77;1.60;;;;;;;14.22;61.04;99140.00;6130598;23;20162;-89
2022/09/23 03:37:00;;;;;;;2.80;1.00;;;;;;;14.28;60.50;99148.31;6156306;23;20143;-89
2022/09/23 03:39:39;;;;;;;2.83;1.20;;;;;;;14.30;60.56;99143.81;6156248;23;20238;-89
2022/09/23 03:42:15;;;;;;;3.70;1.60;;;;;;;14.30;60.26;99140.34;6156362;23;20218;-89
2022/09/23 03:44:44;;;;;;;3.83;1.10;;;;;;;14.28;60.66;99144.88;6156574;23;20134;-90
2022/09/23 03:47:11;;;;;;;2.43;1.53;;;;;;;14.28;60.61;99150.16;6129788;23;20262;-89
2022/09/23 03:49:38;;;;;;;2.10;1.07;;;;;;;14.27;60.87;99144.03;6156553;23;20151;-89
2022/09/23 03:52:06;;;;;;;1.33;0.93;;;;;;;14.26;60.84;99146.75;6157142;23;20158;-89
2022/09/23 03:54:32;;;;;;;4.60;0.90;;;;;;;14.28;60.70;99156.22;6156472;23;20154;-89
2022/09/23 03:57:00;;;;;;;1.90;1.03;;;;;;;14.28;60.21;99148.31;6156356;23;20148;-89
2022/09/23 03:59:29;;;;;;;2.23;1.40;;;;;;;14.26;60.23;99152.00;6131719;23;20476;-89
2022/09/23 04:01:55;;;;;;;2.47;1.40;;;;;;;14.19;60.75;99162.16;6155696;23;20265;-89
2022/09/23 04:04:22;;;;;;;2.33;1.20;;;;;;;14.18;61.03;99160.44;6156432;23;20520;-89
2022/09/23 04:06:49;;;;;;;2.70;1.33;;;;;;;14.18;61.00;99163.06;6156345;23;20585;-89
2022/09/23 04:09:15;;;;;;;1.57;1.20;;;;;;;14.12;61.49;99155.59;6156619;23;20206;-88
2022/09/23 04:11:42;;;;;;;2.27;1.23;;;;;;;14.13;61.25;99159.91;6156328;23;20212;-89
2022/09/23 04:14:10;;;;;;;3.63;1.20;;;;;;;14.02;62.11;99157.13;6156314;23;20166;-89
2022/09/23 04:16:36;;;;;;;4.17;1.53;;;;;;;13.98;62.10;99159.16;6155229;23;20177;-89
2022/09/23 04:19:03;;;;;;;1.60;1.07;;;;;;;14.04;62.16;99169.28;6155476;23;20622;-89
2022/09/23 04:21:30;;;;;;;8.40;1.10;;;;;;;14.08;61.82;99172.53;6156133;23;20187;-89
2022/09/23 04:23:57;;;;;;;1.90;1.10;;;;;;;14.18;62.03;99171.84;6156418;23;20151;-89
2022/09/23 04:26:23;;;;;;;1.23;0.90;;;;;;;14.18;61.96;99182.38;6155927;23;20147;-89
2022/09/23 04:28:50;;;;;;;2.13;1.20;;;;;;;14.23;61.74;99182.06;6156124;23;20159;-89
2022/09/23 04:31:17;;;;;;;2.30;1.00;;;;;;;14.29;61.55;99184.31;6129848;23;20239;-89
2022/09/23 04:33:44;;;;;;;1.73;0.90;;;;;;;14.23;61.52;99183.88;6130325;23;20594;-89
2022/09/23 04:36:10;;;;;;;1.87;0.90;;;;;;;14.24;61.73;99180.28;6129960;23;20151;-89
2022/09/23 04:38:37;;;;;;;2.27;1.00;;;;;;;14.22;61.80;99187.47;6130194;23;20154;-89
2022/09/23 04:41:08;;;;;;;2.27;0.90;;;;;;;14.28;61.56;99181.78;6155973;23;20182;-89
2022/09/23 04:43:35;;;;;;;3.90;1.13;;;;;;;14.33;61.91;99190.25;6155234;23;20148;-89
2022/09/23 04:46:03;;;;;;;6.87;1.10;;;;;;;14.33;61.97;99193.75;6129835;23;20571;-89
2022/09/23 04:48:30;;;;;;;1.90;1.00;;;;;;;14.29;61.60;99184.31;6155811;23;20158;-89
2022/09/23 04:51:06;;;;;;;1.70;0.90;;;;;;;14.40;61.41;99188.91;6130154;23;20155;-89
2022/09/23 04:53:34;;;;;;;2.17;1.00;;;;;;;14.48;61.59;99189.22;6155734;23;20188;-89
2022/09/23 04:56:08;;;;;;;1.40;0.70;;;;;;;14.47;61.36;99184.88;6155904;23;20485;-89
2022/09/23 04:58:36;;;;;;;1.07;0.83;;;;;;;14.53;61.17;99185.34;6155738;23;20574;-89
2022/09/23 05:01:17;;;;;;;1.60;0.67;;;;;;;14.58;60.71;99187.66;6129987;23;20265;-90
2022/09/23 05:03:45;;;;;;;2.40;1.00;;;;;;;14.60;60.91;99188.38;6155874;23;20201;-89
2022/09/23 05:06:13;;;;;;;1.93;1.00;;;;;;;14.68;60.72;99188.72;6155412;23;20150;-89
2022/09/23 05:08:40;;;;;;;1.93;0.97;;;;;;;14.75;60.48;99193.44;6155480;23;20198;-89
2022/09/23 05:11:07;;;;;;;1.33;0.63;;;;;;;14.80;59.65;99198.44;6155413;23;20161;-89
2022/09/23 05:13:34;;;;;;;0.93;0.70;;;;;;;14.85;60.11;99196.31;6155642;23;20161;-89
2022/09/23 05:16:02;;;;;;;2.23;1.00;;;;;;;14.89;60.23;99192.50;6156083;23;20225;-89
2022/09/23 05:18:34;;;;;;;2.30;0.80;;;;;;;15.00;59.30;99192.63;6129461;23;20158;-89
2022/09/23 05:21:01;;;;;;;1.47;0.73;;;;;;;15.08;59.58;99189.44;6155261;23;20322;-89
2022/09/23 05:23:28;;;;;;;2.27;0.97;;;;;;;15.30;59.35;99205.47;6155768;23;20161;-89
2022/09/23 05:26:01;;;;;;;2.20;1.00;;;;;;;15.44;59.14;99197.41;6130173;23;20182;-88
2022/09/23 05:28:30;;;;;;;1.30;0.80;;;;;;;15.61;58.60;99190.94;6155502;23;20151;-89
2022/09/23 05:31:30;;;;;;;1.50;0.87;;;;;;;15.68;58.16;99194.81;6155261;23;20251;-89
2022/09/23 05:34:00;;;;;;;1.20;0.83;;;;;;;15.61;58.83;99198.88;6155981;23;20214;-89
2022/09/23 05:36:27;;;;;;;2.60;0.80;;;;;;;15.76;59.01;99195.13;6155989;23;20148;-89
2022/09/23 05:38:56;;;;;;;2.60;1.17;;;;;;;15.89;59.16;99195.91;6155871;23;20479;-89
2022/09/23 05:41:24;;;;;;;1.40;0.80;;;;;;;16.00;59.20;99195.97;6155837;23;20589;-89
2022/09/23 05:43:52;;;;;;;2.27;1.10;;;;;;;16.23;58.58;99186.31;6156147;23;20562;-89
2022/09/23 05:46:25;;;;;;;3.73;1.10;;;;;;;16.47;57.08;99195.91;6155215;23;20579;-88
2022/09/23 05:48:52;;;;;;;1.83;1.17;;;;;;;16.67;56.18;99185.63;6155067;23;20152;-89
2022/09/23 05:51:22;;;;;;;1.83;1.00;;;;;;;16.81;54.57;99188.91;6155422;23;20260;-89
2022/09/23 05:53:51;;;;;;;3.00;1.57;;;;;;;17.06;52.44;99188.69;6155465;23;20196;-89
2022/09/23 05:56:20;;;;;;;2.23;1.00;;;;;;;17.03;50.15;99193.41;6129280;23;20171;-88
2022/09/23 05:58:52;;;;;;;2.57;1.43;;;;;;;17.00;50.45;99198.94;6154971;23;20180;-89
2022/09/23 06:01:25;;;;;;;3.07;1.40;;;;;;;17.06;49.77;99190.50;6155621;23;20266;-90
2022/09/23 06:03:53;;;;;;;3.17;1.23;;;;;;;16.94;50.07;99194.09;6129793;23;20162;-90
2022/09/23 06:06:25;;;;;;;2.20;1.07;;;;;;;17.08;50.54;99192.09;6129675;23;20170;-89
2022/09/23 06:08:51;;;;;;;2.40;1.13;;;;;;;17.04;50.59;99189.78;6155256;23;20268;-89
2022/09/23 06:11:20;;;;;;;3.53;1.40;;;;;;;17.02;50.96;99189.91;6155856;23;20161;-90
2022/09/23 06:13:48;;;;;;;3.67;1.03;;;;;;;17.21;49.30;99191.97;6155331;23;20149;-89
2022/09/23 06:16:15;;;;;;;1.90;1.17;;;;;;;17.07;49.34;99195.69;6155201;23;20249;-90
2022/09/23 06:18:43;;;;;;;2.03;1.13;;;;;;;17.01;49.70;99190.84;6155341;23;20241;-90
2022/09/23 06:21:15;;;;;;;2.80;1.10;;;;;;;17.15;49.20;99192.44;6155194;23;20170;-90
2022/09/23 06:23:43;;;;;;;3.77;1.70;;;;;;;17.15;49.62;99193.28;6155264;23;20151;-89
2022/09/23 06:26:12;;;;;;;3.70;1.40;;;;;;;17.17;48.33;99199.28;6155395;23;20579;-89
2022/09/23 06:28:41;;;;;;;3.70;1.57;;;;;;;17.13;48.98;99199.66;6129623;23;20162;-89
2022/09/23 06:31:14;;;;;;;2.47;1.37;;;;;;;17.13;49.27;99191.72;6154760;23;20501;-90
2022/09/23 06:33:41;;;;;;;3.63;2.00;;;;;;;17.20;48.83;99192.91;6129101;23;20153;-89
2022/09/23 06:36:08;;;;;;;3.87;2.10;;;;;;;17.26;49.01;99194.25;6155678;23;20154;-90
2022/09/23 06:38:38;;;;;;;3.37;1.83;;;;;;;17.22;48.12;99193.63;6155646;23;20359;-90
2022/09/23 06:41:05;;;;;;;3.10;1.40;;;;;;;17.37;48.16;99189.78;6155167;23;20189;-89
2022/09/23 06:43:34;;;;;;;2.77;1.50;;;;;;;17.25;47.98;99187.25;6155403;23;20189;-90
2022/09/23 06:46:02;;;;;;;2.30;1.30;;;;;;;17.14;47.17;99186.28;6129206;23;20213;-90
2022/09/23 06:48:34;;;;;;;3.33;1.40;;;;;;;16.98;47.06;99191.09;6154736;23;20154;-90
2022/09/23 06:51:03;;;;;;;2.47;1.47;;;;;;;16.96;47.61;99197.47;6129417;23;20154;-89
2022/09/23 06:53:33;;;;;;;4.10;1.60;;;;;;;17.08;47.77;99196.53;6154821;23;20149;-89
2022/09/23 06:56:04;;;;;;;3.40;1.90;;;;;;;17.20;48.16;99200.84;6129713;23;20169;-88
2022/09/23 06:58:35;;;;;;;2.50;1.20;;;;;;;16.89;48.21;99202.41;6156028;23;20149;-91
2022/09/23 07:01:04;;;;;;;2.40;1.80;;;;;;;16.98;48.11;99200.88;6128372;23;20189;-91
2022/09/23 07:03:31;;;;;;;2.27;1.30;;;;;;;17.18;47.83;99200.13;6155918;23;20162;-90
2022/09/23 07:05:58;;;;;;;3.97;1.23;;;;;;;17.30;47.09;99201.81;6129498;23;20163;-91
2022/09/23 07:08:26;;;;;;;2.70;1.37;;;;;;;17.47;46.19;99201.34;6130793;23;20769;-89
2022/09/23 07:10:55;;;;;;;4.73;1.23;;;;;;;17.69;46.69;99190.72;6130766;23;20597;-90
2022/09/23 07:13:22;;;;;;;2.80;1.50;;;;;;;17.74;46.12;99201.78;6157332;23;20182;-90
2022/09/23 07:16:05;;;;;;;;;;;;;;;;;;;;;
2022/09/23 07:18:58;;;;;;;2.83;1.30;;;;;;;17.82;45.98;99208.31;6157607;23;20242;-91
2022/09/23 07:21:44;;;;;;;2.07;1.30;;;;;;;17.91;45.67;99205.75;6130342;23;20199;-91
2022/09/23 07:24:23;;;;;;;;;;;;;;;;;;;;;
2022/09/23 07:27:48;;;;;;;2.60;1.63;;;;;;;17.99;45.25;99221.03;6156241;23;20206;-90
2022/09/23 07:37:47;;;;;;;;;;;;;;;;;;;;;
2022/09/23 07:40:13;;;;;;;2.60;1.50;;;;;;;18.10;44.55;99205.94;5908421;24;20274;-90
2022/09/23 07:46:31;;;;;;;2.70;1.30;;;;;;;18.77;44.51;99197.66;5900264;24;20160;-90
2022/09/23 07:49:16;;;;;;;2.43;1.53;;;;;;;18.90;43.30;99211.56;5954365;24;20144;-91
2022/09/23 07:51:48;;;;;;;2.67;1.50;;;;;;;18.98;42.10;99215.25;5954118;24;20573;-91
2022/09/23 07:55:13;;;;;;;2.97;1.20;;;;;;;19.02;42.10;99213.19;5954316;24;20301;-90
2022/09/23 07:58:21;;;;;;;2.73;1.50;;;;;;;19.20;42.65;99218.72;5876530;24;20236;-92
2022/09/23 08:01:17;;;;;;;2.60;1.33;;;;;;;19.42;41.58;99210.59;5899541;24;20675;-91
2022/09/23 08:04:26;;;;;;;;;;;;;;;;;;;;;
2022/09/23 08:07:02;;;;;;;1.93;1.17;;;;;;;19.95;41.13;99200.50;6034618;23;20277;-90
2022/09/23 08:12:28;;;;;;;3.07;1.30;;;;;;;20.46;39.93;99197.63;6038217;23;20158;-89
2022/09/23 08:14:54;;;;;;;4.70;1.50;;;;;;;20.55;40.35;99202.09;6015114;23;20181;-92
2022/09/23 08:17:28;;;;;;;3.43;1.40;;;;;;;20.63;39.13;99200.41;6038748;23;20158;-92
2022/09/23 08:20:43;;;;;;;2.53;1.33;;;;;;;20.73;38.05;99197.72;6038264;23;20289;-95
2022/09/23 08:22:53;;;;;;;2.47;1.50;;;;;;;20.79;38.71;99202.47;6035962;23;20475;-89
2022/09/23 08:25:46;;;;;;;2.07;1.20;;;;;;;20.91;38.09;99193.31;6014441;23;20161;-92
2022/09/23 08:28:19;;;;;;;1.87;0.80;;;;;;;21.05;37.61;99190.22;6013014;23;20681;-91
2022/09/23 08:31:49;;;;;;;2.97;1.07;;;;;;;21.31;37.73;99185.94;6094556;23;20606;-91
2022/09/23 08:34:08;;;;;;;2.67;1.13;;;;;;;21.50;37.55;99186.84;6062239;23;20160;-90
2022/09/23 08:36:44;;;;;;;;;;;;;;;;;;;;;
2022/09/23 08:39:59;;;;;;;2.50;1.20;;;;;;;21.76;37.78;99169.13;6066923;23;20539;-91
2022/09/23 08:42:33;;;;;;;2.47;1.17;;;;;;;21.85;36.59;99168.25;6060883;23;20175;-89
2022/09/23 08:45:39;;;;;;;;;;;;;;;;;;;;;
2022/09/23 08:51:53;;;;;;;3.10;1.43;;;;;;;22.27;35.55;99166.69;5971626;24;20166;-90
2022/09/23 08:55:04;;;;;;;;;;;;;;;;;;;;;
2022/09/23 09:01:17;;;;;;;2.10;1.00;;;;;;;22.57;34.03;99155.56;5883131;24;20295;-91
2022/09/23 09:04:23;;;;;;;1.73;0.93;;;;;;;22.77;34.10;99160.75;5899657;24;20156;-93
2022/09/23 09:07:31;;;;;;;2.53;1.07;;;;;;;22.75;35.03;99157.38;5899047;24;20141;-90
2022/09/23 09:10:19;;;;;;;1.90;1.37;;;;;;;22.98;34.62;99145.19;6011156;23;20209;-90
2022/09/23 09:13:42;;;;;;;2.10;1.20;;;;;;;23.30;32.57;99145.31;6066478;23;20182;-90
2022/09/23 09:16:59;;;;;;;1.80;1.00;;;;;;;23.43;31.76;99140.41;6014335;23;20542;-90
2022/09/23 09:20:14;;;;;;;;;;;;;;;;;;;;;
2022/09/23 09:22:59;;;;;;;2.60;1.20;;;;;;;23.13;33.23;99156.97;6037943;23;20682;-91
2022/09/23 09:29:14;;;;;;;3.37;1.00;;;;;;;23.52;33.24;99155.50;6009628;23;20159;-90
2022/09/23 09:31:44;;;;;;;1.53;0.67;;;;;;;23.69;33.72;99151.00;6009355;23;20611;-91
2022/09/23 09:34:54;;;;;;;1.70;1.03;;;;;;;23.83;31.67;99161.94;6009764;23;20606;-91
2022/09/23 09:38:31;;;;;;;;;;;;;;;;;;;;;
2022/09/23 09:48:36;;;;;;;1.77;0.80;;;;;;;24.40;31.26;99160.19;5973102;23;20261;-90
2022/09/23 09:51:29;;;;;;;1.20;0.80;;;;;;;24.59;29.99;99153.66;6009178;23;20222;-91
2022/09/23 09:58:14;;;;;;;;;;;;;;;;;;;;;
2022/09/23 10:00:52;;;;;;;1.23;0.70;;;;;;;25.18;28.09;99154.25;5837529;24;20291;-88
2022/09/23 10:10:32;;;;;;;;;;;;;;;;;;;;;
2022/09/23 10:13:35;;;;;;;1.90;0.70;;;;;;;25.41;28.78;99150.63;6036900;23;20237;-89
2022/09/23 10:16:02;;;;;;;1.23;0.50;;;;;;;25.27;28.21;99153.19;6147473;23;20154;-88
2022/09/23 10:19:01;;;;;;;1.50;0.77;;;;;;;25.27;29.13;99153.19;6129559;23;20155;-88
2022/09/23 10:22:03;;;;;;;7.77;3.87;;;;;;;25.58;27.59;99141.50;6078132;23;20272;-91
2022/09/23 10:25:12;;;;;;;32.80;18.20;;;;;;;25.59;28.15;99143.19;6037461;23;20161;-91
2022/09/23 10:31:43;;;;;;;2.13;0.80;;;;;;;25.63;26.92;99135.59;6009062;23;20159;-90
2022/09/23 10:35:32;;;;;;;1.60;0.70;;;;;;;25.34;27.49;99146.16;6009888;23;20660;-92
2022/09/23 10:37:57;;;;;;;0.90;0.50;;;;;;;25.05;26.65;99134.16;6006003;23;20159;-89
2022/09/23 10:47:42;;;;;;;;;;;;;;;;;;;;;
2022/09/23 10:51:19;;;;;;;;;;;;;;;;;;;;;
2022/09/23 11:08:08;;;;;;;0.93;0.50;;;;;;;25.55;29.65;99092.72;5810056;24;20164;-89
2022/09/23 11:11:27;;;;;;;1.40;0.60;;;;;;;25.21;28.93;99106.41;5792900;24;20222;-88
2022/09/23 11:18:13;;;;;;;;;;;;;;;;;;;;;
2022/09/23 11:21:49;;;;;;;1.43;0.50;;;;;;;25.71;29.08;99102.53;5773161;24;20580;-90
2022/09/23 11:24:58;;;;;;;;;;;;;;;;;;;;;
2022/09/23 11:28:17;;;;;;;0.63;0.47;;;;;;;26.38;27.44;99080.22;5894166;24;20189;-88
2022/09/23 11:34:47;;;;;;;0.93;0.40;;;;;;;25.75;27.88;99067.09;5995720;23;20185;-88
2022/09/23 11:38:15;;;;;;;2.67;0.50;;;;;;;25.46;28.73;99077.66;6010138;23;20563;-88
2022/09/23 11:41:08;;;;;;;1.20;0.60;;;;;;;25.45;28.79;99075.94;6007150;23;20189;-88
2022/09/23 11:44:00;;;;;;;2.03;0.75;;;;;;;25.71;28.49;99060.38;5995975;23;20158;-88
2022/09/23 11:46:40;;;;;;;;;;;;;;;;;;;;;
2022/09/23 11:53:02;;;;;;;;;;;;;;;;;;;;;
2022/09/23 11:56:06;;;;;;;1.50;0.60;;;;;;;26.81;26.99;99043.63;6038453;23;20534;-90
2022/09/23 12:02:49;;;;;;;;;;;;;;;;;;;;;
2022/09/23 12:35:56;;;;;;;;;;;;;;;;;;;;;
2022/09/23 12:45:47;;;;;;;1.10;0.50;;;;;;;27.74;23.49;99035.69;6004337;23;20223;-90
2022/09/23 12:49:06;;;;;;;;;;;;;;;;;;;;;
2022/09/23 12:55:32;;;;;;;0.68;0.43;;;;;;;27.54;23.91;99034.66;5891149;23;20266;-93
2022/09/23 13:01:52;;;;;;;1.85;0.75;;;;;;;28.27;23.76;99024.38;6010210;23;20185;-91
2022/09/23 13:11:54;;;;;;;;;;;;;;;;;;;;;
